createdAt,value
2023-09-17T00:01:16.083Z,20.80
2023-09-17T00:03:43.183Z,20.80
2023-09-17T00:06:10.989Z,20.70
2023-09-17T00:08:39.115Z,20.70
2023-09-17T00:11:08.327Z,20.60
2023-09-17T00:13:36.500Z,20.50
2023-09-17T00:16:03.531Z,20.50
2023-09-17T00:18:30.751Z,20.50
2023-09-17T00:20:57.658Z,20.40
2023-09-17T00:23:24.629Z,20.40
2023-09-17T00:25:51.841Z,20.30
2023-09-17T00:28:18.905Z,20.30
2023-09-17T00:30:45.967Z,20.30
2023-09-17T00:33:12.980Z,20.30
2023-09-17T00:35:39.915Z,20.20
2023-09-17T00:38:06.934Z,20.00
2023-09-17T00:40:35.815Z,20.20
2023-09-17T00:43:03.323Z,20.30
2023-09-17T00:45:31.988Z,20.30
2023-09-17T00:48:01.481Z,20.30
2023-09-17T00:50:28.517Z,20.20
2023-09-17T00:52:55.612Z,20.00
2023-09-17T00:55:22.701Z,19.80
2023-09-17T00:57:50.846Z,19.60
2023-09-17T01:00:21.905Z,19.50
2023-09-17T01:02:49.128Z,19.40
2023-09-17T01:05:16.294Z,19.40
2023-09-17T01:07:43.612Z,19.30
2023-09-17T01:10:10.903Z,19.20
2023-09-17T01:12:39.561Z,19.20
2023-09-17T01:15:10.256Z,19.00
2023-09-17T01:17:37.291Z,18.90
2023-09-17T01:20:25.700Z,18.80
2023-09-17T01:22:56.939Z,18.80
2023-09-17T01:25:53.297Z,18.70
2023-09-17T01:28:20.417Z,18.70
2023-09-17T01:30:48.116Z,18.50
2023-09-17T01:33:15.141Z,18.50
2023-09-17T01:35:54.411Z,18.40
2023-09-17T01:38:26.983Z,18.30
2023-09-17T01:40:55.263Z,18.30
2023-09-17T01:43:22.247Z,18.30
2023-09-17T01:45:49.524Z,18.30
2023-09-17T01:48:17.137Z,18.30
2023-09-17T01:50:45.083Z,18.40
2023-09-17T01:53:14.982Z,18.40
2023-09-17T01:55:43.130Z,18.40
2023-09-17T01:58:11.422Z,18.30
2023-09-17T02:00:39.235Z,18.30
2023-09-17T02:03:06.912Z,18.30
2023-09-17T02:05:34.017Z,18.30
2023-09-17T02:08:01.030Z,18.30
2023-09-17T02:10:28.079Z,18.30
2023-09-17T02:12:55.026Z,18.30
2023-09-17T02:15:21.943Z,18.30
2023-09-17T02:17:52.647Z,18.30
2023-09-17T02:20:20.043Z,18.30
2023-09-17T02:22:47.834Z,18.30
2023-09-17T02:25:14.804Z,18.30
2023-09-17T02:27:41.781Z,18.20
2023-09-17T02:30:09.592Z,18.20
2023-09-17T02:32:38.730Z,18.10
2023-09-17T02:35:09.439Z,18.20
2023-09-17T02:37:36.788Z,18.20
2023-09-17T02:40:05.855Z,18.20
2023-09-17T02:42:32.823Z,18.20
2023-09-17T02:44:59.740Z,18.30
2023-09-17T02:47:26.788Z,18.30
2023-09-17T02:49:53.784Z,18.40
2023-09-17T02:52:20.755Z,18.40
2023-09-17T02:54:47.663Z,18.50
2023-09-17T02:57:14.617Z,18.50
2023-09-17T02:59:41.506Z,18.50
2023-09-17T03:02:09.057Z,18.40
2023-09-17T03:04:37.482Z,18.40
2023-09-17T03:07:05.581Z,18.40
2023-09-17T03:09:32.882Z,18.40
2023-09-17T03:11:59.736Z,18.40
2023-09-17T03:14:26.768Z,18.20
2023-09-17T03:16:54.084Z,18.20
2023-09-17T03:19:21.326Z,18.20
2023-09-17T03:21:48.592Z,18.20
2023-09-17T03:24:18.311Z,18.20
2023-09-17T03:26:45.520Z,18.20
2023-09-17T03:29:13.515Z,18.20
2023-09-17T03:31:42.426Z,18.10
2023-09-17T03:34:11.491Z,18.10
2023-09-17T03:36:38.648Z,18.10
2023-09-17T03:39:10.074Z,18.00
2023-09-17T03:41:41.353Z,18.00
2023-09-17T03:44:11.377Z,17.90
2023-09-17T03:46:39.423Z,17.90
2023-09-17T03:49:07.600Z,17.80
2023-09-17T03:51:35.871Z,17.80
2023-09-17T03:54:02.899Z,17.70
2023-09-17T03:56:29.850Z,17.60
2023-09-17T03:58:57.288Z,17.50
2023-09-17T04:01:25.527Z,17.50
2023-09-17T04:03:52.700Z,17.40
2023-09-17T04:06:19.956Z,17.30
2023-09-17T04:08:46.992Z,17.30
2023-09-17T04:11:17.288Z,17.30
2023-09-17T04:13:45.391Z,17.30
2023-09-17T04:16:13.580Z,17.30
2023-09-17T04:18:40.799Z,17.30
2023-09-17T04:21:07.750Z,17.20
2023-09-17T04:23:34.638Z,17.10
2023-09-17T04:26:01.886Z,17.10
2023-09-17T04:28:28.904Z,17.00
2023-09-17T04:30:56.487Z,17.00
2023-09-17T04:33:23.982Z,17.00
2023-09-17T04:35:57.409Z,17.00
2023-09-17T04:38:24.935Z,17.00
2023-09-17T04:40:52.144Z,17.00
2023-09-17T04:43:21.484Z,17.00
2023-09-17T04:45:49.071Z,16.90
2023-09-17T04:48:23.532Z,16.90
2023-09-17T04:50:50.599Z,16.90
2023-09-17T04:53:18.028Z,16.80
2023-09-17T04:55:46.946Z,16.80
2023-09-17T04:58:15.663Z,16.80
2023-09-17T05:00:45.323Z,16.80
2023-09-17T05:03:12.909Z,16.80
2023-09-17T05:05:39.950Z,16.60
2023-09-17T05:08:06.976Z,16.60
2023-09-17T05:10:33.958Z,16.50
2023-09-17T05:13:01.125Z,16.40
2023-09-17T05:15:28.077Z,16.30
2023-09-17T05:17:57.473Z,16.40
2023-09-17T05:20:24.672Z,16.50
2023-09-17T05:22:51.667Z,16.60
2023-09-17T05:25:18.812Z,16.60
2023-09-17T05:27:46.097Z,16.60
2023-09-17T05:30:14.512Z,16.60
2023-09-17T05:32:41.578Z,16.70
2023-09-17T05:35:08.906Z,17.00
2023-09-17T05:37:36.518Z,17.20
2023-09-17T05:40:07.949Z,17.40
2023-09-17T05:42:35.057Z,17.50
2023-09-17T05:45:02.213Z,17.70
2023-09-17T05:47:29.856Z,17.80
2023-09-17T05:49:58.968Z,18.00
2023-09-17T05:52:29.895Z,18.10
2023-09-17T05:54:56.928Z,18.30
2023-09-17T05:57:23.833Z,18.50
2023-09-17T05:59:50.917Z,18.70
2023-09-17T06:02:17.902Z,19.20
2023-09-17T06:04:48.679Z,19.90
2023-09-17T06:07:15.718Z,20.10
2023-09-17T06:09:42.910Z,20.50
2023-09-17T06:12:10.624Z,21.40
2023-09-17T06:14:38.057Z,22.70
2023-09-17T06:17:05.383Z,23.10
2023-09-17T06:19:34.354Z,23.80
2023-09-17T06:22:01.440Z,24.60
2023-09-17T06:24:28.897Z,24.80
2023-09-17T06:26:56.727Z,24.60
2023-09-17T06:29:23.641Z,24.80
2023-09-17T06:31:50.818Z,25.00
2023-09-17T06:34:17.905Z,25.20
2023-09-17T06:36:44.865Z,25.10
2023-09-17T06:39:12.188Z,25.20
2023-09-17T06:41:43.189Z,25.00
2023-09-17T06:44:10.481Z,25.20
2023-09-17T06:46:38.632Z,25.20
2023-09-17T06:49:05.649Z,25.30
2023-09-17T06:51:32.677Z,25.00
2023-09-17T06:53:59.627Z,25.30
2023-09-17T06:56:26.705Z,25.70
2023-09-17T06:58:53.741Z,26.30
2023-09-17T07:01:20.774Z,26.60
2023-09-17T07:03:48.273Z,26.10
2023-09-17T07:06:15.329Z,26.10
2023-09-17T07:08:42.233Z,25.90
2023-09-17T07:11:09.115Z,26.50
2023-09-17T07:13:36.051Z,27.40
2023-09-17T07:16:03.097Z,27.30
2023-09-17T07:18:32.887Z,28.10
2023-09-17T07:20:59.887Z,28.20
2023-09-17T07:23:26.832Z,28.70
2023-09-17T07:25:53.905Z,29.30
2023-09-17T07:28:21.805Z,29.70
2023-09-17T07:30:57.076Z,29.40
2023-09-17T07:33:24.630Z,29.50
2023-09-17T07:35:51.754Z,28.60
2023-09-17T07:38:18.819Z,28.10
2023-09-17T07:40:46.731Z,28.60
2023-09-17T07:43:13.761Z,28.70
2023-09-17T07:45:40.723Z,28.60
2023-09-17T07:48:07.807Z,28.10
2023-09-17T07:50:34.794Z,27.80
2023-09-17T07:53:03.412Z,28.00
2023-09-17T07:55:31.151Z,28.10
2023-09-17T07:57:58.276Z,27.70
2023-09-17T08:00:26.025Z,27.20
2023-09-17T08:02:53.262Z,26.70
2023-09-17T08:05:20.429Z,25.90
2023-09-17T08:07:47.387Z,25.60
2023-09-17T08:10:14.801Z,25.60
2023-09-17T08:12:41.699Z,25.40
2023-09-17T08:15:09.116Z,25.30
2023-09-17T08:17:36.024Z,25.00
2023-09-17T08:20:03.909Z,24.90
2023-09-17T08:22:31.035Z,24.90
2023-09-17T08:24:57.966Z,25.20
2023-09-17T08:27:24.837Z,25.60
2023-09-17T08:29:51.881Z,25.90
2023-09-17T08:32:19.343Z,26.00
2023-09-17T08:34:46.290Z,26.30
2023-09-17T08:37:13.225Z,26.30
2023-09-17T08:39:40.126Z,26.30
2023-09-17T08:42:07.125Z,26.40
2023-09-17T08:44:34.717Z,26.50
2023-09-17T08:47:01.938Z,26.30
2023-09-17T08:49:29.679Z,26.00
2023-09-17T08:51:57.558Z,26.00
2023-09-17T08:54:31.547Z,26.20
2023-09-17T08:57:00.576Z,26.40
2023-09-17T08:59:30.502Z,25.90
2023-09-17T09:02:04.919Z,26.50
2023-09-17T09:04:31.959Z,27.10
2023-09-17T09:06:59.651Z,27.00
2023-09-17T09:09:26.794Z,26.80
2023-09-17T09:11:54.716Z,27.30
2023-09-17T09:14:21.635Z,27.70
2023-09-17T09:16:48.502Z,27.90
2023-09-17T09:19:15.499Z,27.70
2023-09-17T09:21:42.966Z,27.90
2023-09-17T09:24:09.958Z,28.10
2023-09-17T09:26:39.008Z,28.70
2023-09-17T09:29:07.611Z,28.70
2023-09-17T09:31:35.792Z,28.90
2023-09-17T09:34:04.126Z,29.80
2023-09-17T09:36:35.589Z,29.70
2023-09-17T09:39:04.020Z,30.20
2023-09-17T09:41:34.223Z,30.50
2023-09-17T09:44:01.936Z,30.30
2023-09-17T09:46:31.960Z,29.30
2023-09-17T09:49:02.534Z,29.20
2023-09-17T09:51:32.898Z,29.10
2023-09-17T09:54:00.076Z,28.80
2023-09-17T09:56:29.897Z,29.00
2023-09-17T09:58:57.306Z,29.70
2023-09-17T10:01:24.725Z,30.40
2023-09-17T10:03:52.366Z,30.20
2023-09-17T10:06:20.353Z,30.50
2023-09-17T10:08:47.721Z,30.80
2023-09-17T10:11:16.050Z,30.40
2023-09-17T10:13:43.676Z,29.90
2023-09-17T10:16:10.899Z,30.40
2023-09-17T10:18:39.527Z,30.60
2023-09-17T10:21:06.889Z,30.20
2023-09-17T10:23:34.983Z,30.80
2023-09-17T10:26:02.761Z,31.70
2023-09-17T10:28:33.771Z,31.90
2023-09-17T10:31:02.043Z,32.60
2023-09-17T10:33:32.233Z,32.70
2023-09-17T10:36:00.137Z,32.90
2023-09-17T10:38:27.990Z,33.30
2023-09-17T10:40:56.506Z,33.20
2023-09-17T10:43:23.860Z,32.50
2023-09-17T10:45:51.086Z,32.40
2023-09-17T10:48:19.980Z,32.90
2023-09-17T10:50:47.652Z,32.80
2023-09-17T10:53:14.750Z,32.50
2023-09-17T10:55:45.606Z,32.80
2023-09-17T10:58:24.789Z,32.60
2023-09-17T11:00:52.110Z,30.90
2023-09-17T11:03:21.091Z,30.50
2023-09-17T11:05:48.655Z,30.80
2023-09-17T11:08:17.054Z,31.20
2023-09-17T11:10:44.202Z,31.90
2023-09-17T11:13:55.318Z,32.30
2023-09-17T11:16:25.418Z,32.80
2023-09-17T11:19:10.248Z,33.00
2023-09-17T11:21:41.077Z,31.90
2023-09-17T11:24:11.955Z,32.00
2023-09-17T11:26:43.632Z,32.20
2023-09-17T11:29:11.889Z,31.30
2023-09-17T11:31:54.166Z,31.60
2023-09-17T11:34:24.179Z,30.90
2023-09-17T11:36:51.737Z,30.90
2023-09-17T11:39:21.625Z,31.20
2023-09-17T11:41:53.383Z,32.10
2023-09-17T11:44:22.013Z,32.00
2023-09-17T11:46:49.160Z,32.40
2023-09-17T11:49:16.802Z,33.20
2023-09-17T11:51:48.222Z,32.10
2023-09-17T11:54:20.196Z,31.30
2023-09-17T11:56:54.489Z,31.40
2023-09-17T11:59:22.660Z,31.30
2023-09-17T12:01:56.905Z,30.50
2023-09-17T12:04:44.787Z,30.00
2023-09-17T12:07:15.455Z,30.10
2023-09-17T12:09:49.501Z,29.40
2023-09-17T12:12:20.905Z,30.00
2023-09-17T12:14:48.875Z,30.20
2023-09-17T12:17:17.651Z,30.80
2023-09-17T12:19:46.795Z,31.20
2023-09-17T12:22:14.032Z,31.70
2023-09-17T12:24:55.829Z,31.70
2023-09-17T12:27:30.731Z,32.00
2023-09-17T12:29:57.969Z,32.50
2023-09-17T12:32:27.088Z,32.00
2023-09-17T12:34:55.861Z,31.80
2023-09-17T12:37:23.328Z,30.70
2023-09-17T12:39:51.024Z,30.80
2023-09-17T12:42:18.712Z,30.70
2023-09-17T12:44:45.624Z,30.60
2023-09-17T12:47:12.900Z,30.40
2023-09-17T12:49:40.202Z,30.90
2023-09-17T12:52:07.509Z,30.70
2023-09-17T12:54:34.476Z,31.00
2023-09-17T12:57:01.454Z,30.80
2023-09-17T12:59:33.306Z,31.40
2023-09-17T13:02:01.753Z,31.50
2023-09-17T13:04:43.255Z,31.30
2023-09-17T13:07:22.049Z,31.50
2023-09-17T13:09:50.977Z,31.60
2023-09-17T13:12:24.062Z,31.00
2023-09-17T13:14:52.919Z,31.50
2023-09-17T13:17:21.025Z,32.30
2023-09-17T13:19:48.661Z,32.10
2023-09-17T13:22:16.655Z,32.50
2023-09-17T13:24:45.512Z,33.10
2023-09-17T13:27:12.526Z,33.40
2023-09-17T13:29:43.347Z,32.60
2023-09-17T13:32:12.162Z,31.50
2023-09-17T13:34:41.935Z,31.60
2023-09-17T13:37:09.720Z,31.60
2023-09-17T13:39:41.397Z,30.80
2023-09-17T13:42:09.109Z,30.70
2023-09-17T13:44:36.196Z,30.80
2023-09-17T13:47:03.715Z,30.90
2023-09-17T13:49:31.345Z,30.40
2023-09-17T13:51:58.261Z,30.30
2023-09-17T13:54:25.211Z,30.50
2023-09-17T13:56:52.088Z,30.60
2023-09-17T13:59:19.017Z,30.30
2023-09-17T14:01:46.551Z,30.00
2023-09-17T14:04:13.665Z,29.70
2023-09-17T14:06:40.618Z,29.70
2023-09-17T14:09:07.591Z,29.70
2023-09-17T14:11:37.004Z,29.70
2023-09-17T14:14:04.500Z,29.70
2023-09-17T14:16:31.509Z,29.70
2023-09-17T14:18:58.569Z,29.80
2023-09-17T14:21:25.600Z,29.70
2023-09-17T14:23:52.566Z,29.90
2023-09-17T14:26:19.841Z,29.80
2023-09-17T14:28:46.796Z,29.80
2023-09-17T14:31:13.742Z,29.90
2023-09-17T14:33:42.204Z,30.10
2023-09-17T14:36:09.339Z,30.40
2023-09-17T14:38:36.358Z,30.30
2023-09-17T14:41:03.319Z,30.30
2023-09-17T14:43:31.334Z,30.20
2023-09-17T14:45:58.766Z,30.00
2023-09-17T14:48:26.814Z,29.80
2023-09-17T14:50:54.070Z,29.80
2023-09-17T14:53:21.118Z,29.80
2023-09-17T14:55:49.105Z,29.80
2023-09-17T14:58:18.822Z,29.60
2023-09-17T15:00:46.424Z,29.70
2023-09-17T15:03:13.478Z,29.60
2023-09-17T15:05:40.781Z,29.60
2023-09-17T15:08:08.665Z,29.60
2023-09-17T15:10:35.631Z,29.50
2023-09-17T15:13:02.537Z,29.40
2023-09-17T15:15:31.167Z,29.40
2023-09-17T15:17:59.345Z,29.20
2023-09-17T15:20:26.510Z,29.20
2023-09-17T15:22:53.558Z,29.10
2023-09-17T15:25:20.546Z,29.10
2023-09-17T15:27:47.525Z,29.00
2023-09-17T15:30:14.580Z,28.90
2023-09-17T15:32:41.807Z,28.80
2023-09-17T15:35:12.219Z,28.80
2023-09-17T15:37:39.393Z,28.70
2023-09-17T15:40:07.104Z,28.80
2023-09-17T15:42:34.097Z,28.80
2023-09-17T15:45:01.113Z,28.80
2023-09-17T15:47:28.018Z,28.70
2023-09-17T15:49:56.005Z,28.80
2023-09-17T15:52:23.081Z,28.80
2023-09-17T15:54:50.056Z,28.70
2023-09-17T15:57:17.567Z,28.80
2023-09-17T15:59:44.516Z,28.70
2023-09-17T16:02:11.814Z,28.80
2023-09-17T16:04:38.829Z,28.80
2023-09-17T16:07:06.766Z,28.80
2023-09-17T16:09:33.962Z,28.60
2023-09-17T16:12:01.093Z,28.60
2023-09-17T16:14:28.084Z,28.50
2023-09-17T16:16:55.076Z,28.50
2023-09-17T16:19:28.343Z,28.40
2023-09-17T16:21:55.741Z,28.40
2023-09-17T16:24:22.691Z,28.30
2023-09-17T16:26:49.888Z,28.20
2023-09-17T16:29:16.923Z,28.10
2023-09-17T16:31:43.893Z,28.10
2023-09-17T16:34:10.876Z,27.90
2023-09-17T16:36:37.860Z,27.70
2023-09-17T16:39:04.782Z,27.60
2023-09-17T16:41:32.818Z,27.60
2023-09-17T16:43:59.757Z,27.50
2023-09-17T16:46:26.804Z,27.40
2023-09-17T16:48:53.799Z,27.40
2023-09-17T16:51:20.856Z,27.30
2023-09-17T16:53:47.840Z,27.20
2023-09-17T16:56:14.779Z,27.10
2023-09-17T16:58:41.725Z,27.00
2023-09-17T17:01:08.729Z,26.90
2023-09-17T17:03:35.662Z,26.80
2023-09-17T17:06:02.589Z,26.80
2023-09-17T17:08:29.592Z,26.70
2023-09-17T17:10:57.818Z,26.60
2023-09-17T17:13:24.803Z,26.50
2023-09-17T17:15:51.812Z,26.30
2023-09-17T17:18:18.811Z,26.30
2023-09-17T17:20:45.754Z,26.20
2023-09-17T17:23:14.302Z,26.10
2023-09-17T17:25:42.762Z,26.00
2023-09-17T17:28:09.677Z,25.90
2023-09-17T17:30:36.553Z,25.80
2023-09-17T17:33:04.019Z,25.70
2023-09-17T17:35:31.457Z,25.60
2023-09-17T17:37:58.610Z,25.60
2023-09-17T17:40:27.699Z,25.50
2023-09-17T17:42:55.584Z,25.40
2023-09-17T17:45:22.825Z,25.40
2023-09-17T17:47:50.468Z,25.40
2023-09-17T17:50:17.540Z,25.30
2023-09-17T17:52:44.492Z,25.20
2023-09-17T17:55:11.485Z,25.20
2023-09-17T17:57:38.562Z,25.20
2023-09-17T18:00:10.589Z,25.10
2023-09-17T18:02:40.259Z,25.10
2023-09-17T18:05:07.853Z,25.00
2023-09-17T18:07:35.283Z,25.00
2023-09-17T18:10:07.741Z,25.00
2023-09-17T18:12:35.549Z,25.10
2023-09-17T18:15:03.493Z,25.20
2023-09-17T18:17:30.679Z,25.20
2023-09-17T18:19:58.127Z,25.10
2023-09-17T18:22:25.050Z,25.00
2023-09-17T18:24:51.921Z,24.90
2023-09-17T18:27:18.815Z,24.70
2023-09-17T18:29:45.741Z,24.60
2023-09-17T18:32:12.814Z,24.50
2023-09-17T18:34:40.011Z,24.40
2023-09-17T18:37:10.311Z,24.30
2023-09-17T18:39:37.380Z,24.30
2023-09-17T18:42:04.556Z,24.30
2023-09-17T18:44:31.570Z,24.20
2023-09-17T18:46:58.570Z,24.20
2023-09-17T18:49:26.052Z,24.10
2023-09-17T18:51:53.146Z,24.10
2023-09-17T18:54:20.181Z,24.00
2023-09-17T18:56:47.179Z,24.00
2023-09-17T18:59:14.200Z,24.00
2023-09-17T19:01:42.106Z,23.90
2023-09-17T19:04:09.201Z,23.90
2023-09-17T19:06:36.686Z,23.90
2023-09-17T19:09:06.552Z,23.90
2023-09-17T19:11:34.290Z,23.90
2023-09-17T19:14:01.458Z,23.80
2023-09-17T19:16:28.936Z,23.80
2023-09-17T19:18:59.158Z,23.90
2023-09-17T19:21:26.188Z,23.90
2023-09-17T19:23:54.878Z,23.90
2023-09-17T19:26:22.481Z,23.90
2023-09-17T19:28:49.663Z,23.90
2023-09-17T19:31:16.679Z,23.90
2023-09-17T19:33:43.581Z,23.90
2023-09-17T19:36:10.511Z,23.80
2023-09-17T19:38:37.400Z,23.80
2023-09-17T19:41:06.146Z,23.70
2023-09-17T19:43:33.071Z,23.60
2023-09-17T19:46:00.735Z,23.60
2023-09-17T19:48:28.240Z,23.50
2023-09-17T19:50:55.732Z,23.50
2023-09-17T19:53:23.969Z,23.50
2023-09-17T19:55:51.270Z,23.50
2023-09-17T19:58:18.235Z,23.50
2023-09-17T20:00:45.334Z,23.40
2023-09-17T20:03:12.437Z,23.40
2023-09-17T20:05:39.440Z,23.20
2023-09-17T20:08:08.807Z,23.00
2023-09-17T20:10:38.250Z,22.90
2023-09-17T20:13:05.871Z,22.70
2023-09-17T20:15:32.744Z,22.70
2023-09-17T20:18:00.007Z,22.80
2023-09-17T20:20:27.366Z,22.70
2023-09-17T20:22:54.943Z,22.80
2023-09-17T20:25:22.900Z,22.80
2023-09-17T20:28:02.459Z,22.80
2023-09-17T20:30:31.541Z,22.70
2023-09-17T20:32:58.519Z,22.70
2023-09-17T20:35:25.824Z,22.60
2023-09-17T20:37:52.766Z,22.60
2023-09-17T20:40:19.705Z,22.60
2023-09-17T20:42:47.300Z,22.60
2023-09-17T20:45:17.594Z,22.60
2023-09-17T20:47:45.035Z,22.50
2023-09-17T20:50:12.122Z,22.40
2023-09-17T20:52:39.627Z,22.40
2023-09-17T20:55:08.806Z,22.30
2023-09-17T20:57:36.086Z,22.30
2023-09-17T21:00:08.595Z,22.20
2023-09-17T21:02:35.740Z,22.20
2023-09-17T21:05:03.877Z,22.20
2023-09-17T21:07:30.867Z,22.30
2023-09-17T21:09:57.970Z,22.30
2023-09-17T21:12:25.296Z,22.40
2023-09-17T21:14:52.209Z,22.40
2023-09-17T21:17:19.551Z,22.40
2023-09-17T21:19:46.640Z,22.40
2023-09-17T21:22:13.811Z,22.50
2023-09-17T21:24:40.757Z,22.50
2023-09-17T21:27:07.708Z,22.50
2023-09-17T21:29:37.495Z,22.40
2023-09-17T21:32:04.789Z,22.40
2023-09-17T21:34:31.804Z,22.30
2023-09-17T21:36:58.763Z,22.30
2023-09-17T21:39:29.066Z,22.00
2023-09-17T21:41:56.936Z,22.00
2023-09-17T21:44:24.053Z,22.00
2023-09-17T21:46:52.864Z,22.00
2023-09-17T21:49:19.923Z,22.20
2023-09-17T21:51:46.999Z,22.20
2023-09-17T21:54:13.863Z,22.30
2023-09-17T21:56:41.673Z,22.50
2023-09-17T21:59:08.988Z,22.50
2023-09-17T22:01:35.856Z,22.40
2023-09-17T22:04:02.820Z,22.40
2023-09-17T22:06:29.796Z,22.30
2023-09-17T22:08:56.741Z,22.30
2023-09-17T22:11:23.740Z,22.30
2023-09-17T22:13:50.648Z,22.30
2023-09-17T22:16:17.586Z,22.30
2023-09-17T22:18:45.054Z,22.40
2023-09-17T22:21:12.079Z,22.40
2023-09-17T22:23:39.373Z,22.30
2023-09-17T22:26:09.879Z,22.30
2023-09-17T22:28:37.850Z,22.20
2023-09-17T22:31:12.695Z,22.20
2023-09-17T22:33:41.369Z,22.30
2023-09-17T22:36:09.839Z,22.40
2023-09-17T22:38:39.777Z,22.30
2023-09-17T22:41:06.688Z,22.30
2023-09-17T22:43:33.709Z,22.30
2023-09-17T22:46:05.105Z,22.50
2023-09-17T22:48:32.019Z,22.60
2023-09-17T22:51:00.121Z,22.80
2023-09-17T22:53:27.120Z,22.80
2023-09-17T22:55:55.910Z,22.90
2023-09-17T22:58:22.887Z,23.00
2023-09-17T23:00:49.803Z,23.10
2023-09-17T23:03:16.732Z,23.20
2023-09-17T23:05:43.783Z,23.40
2023-09-17T23:08:10.769Z,23.40
2023-09-17T23:10:37.747Z,23.40
2023-09-17T23:13:06.442Z,23.40
2023-09-17T23:15:33.372Z,23.30
2023-09-17T23:18:01.334Z,23.20
2023-09-17T23:20:31.130Z,23.20
2023-09-17T23:22:58.092Z,23.20
2023-09-17T23:25:26.465Z,23.10
2023-09-17T23:27:53.396Z,23.10
2023-09-17T23:30:22.462Z,23.10
2023-09-17T23:32:50.402Z,23.00
2023-09-17T23:35:17.456Z,23.00
2023-09-17T23:37:44.413Z,22.90
2023-09-17T23:40:11.537Z,22.90
2023-09-17T23:42:38.409Z,22.90
2023-09-17T23:45:05.835Z,22.80
2023-09-17T23:47:32.808Z,22.80
2023-09-17T23:49:59.837Z,22.70
2023-09-17T23:52:26.814Z,22.80
2023-09-17T23:54:53.694Z,22.90
2023-09-17T23:57:20.625Z,23.00
2023-09-17T23:59:47.524Z,23.20
